createdAt,value
2022-10-05T00:00:25.529Z,8.63
2022-10-05T00:02:55.654Z,7.05
2022-10-05T00:05:35.194Z,8.00
2022-10-05T00:08:16.365Z,8.27
2022-10-05T00:10:47.518Z,7.80
2022-10-05T00:13:22.857Z,7.80
2022-10-05T00:15:53.860Z,9.65
2022-10-05T00:18:23.072Z,6.43
2022-10-05T00:20:51.021Z,9.55
2022-10-05T00:23:37.494Z,9.30
2022-10-05T00:26:22.782Z,9.07
2022-10-05T00:28:51.623Z,8.38
2022-10-05T00:31:33.559Z,8.77
2022-10-05T00:34:01.684Z,8.57
2022-10-05T00:36:29.758Z,7.50
2022-10-05T00:38:57.628Z,12.20
2022-10-05T00:41:31.248Z,8.73
2022-10-05T00:44:42.005Z,10.23
2022-10-05T00:47:28.110Z,10.75
2022-10-05T00:50:10.706Z,14.82
2022-10-05T00:53:07.010Z,10.25
2022-10-05T00:56:03.010Z,8.73
2022-10-05T00:58:49.523Z,8.35
2022-10-05T01:01:35.264Z,9.75
2022-10-05T01:04:09.148Z,8.73
2022-10-05T01:06:43.107Z,8.38
2022-10-05T01:09:32.953Z,9.75
2022-10-05T01:12:09.697Z,10.15
2022-10-05T01:14:55.160Z,10.15
2022-10-05T01:17:34.556Z,9.60
2022-10-05T01:20:15.442Z,10.88
2022-10-05T01:23:23.219Z,8.40
2022-10-05T01:26:54.612Z,8.50
2022-10-05T01:29:25.355Z,8.88
2022-10-05T01:32:14.367Z,11.00
2022-10-05T01:34:48.774Z,12.15
2022-10-05T01:37:41.595Z,10.40
2022-10-05T01:40:32.112Z,7.50
2022-10-05T01:43:22.625Z,9.57
2022-10-05T01:46:15.527Z,9.13
2022-10-05T01:49:18.449Z,10.35
2022-10-05T01:52:05.237Z,8.13
2022-10-05T01:54:45.277Z,8.75
2022-10-05T01:57:37.533Z,8.27
2022-10-05T02:00:12.960Z,11.23
2022-10-05T02:02:47.246Z,10.10
2022-10-05T02:05:20.415Z,8.52
2022-10-05T02:08:08.816Z,8.93
2022-10-05T02:10:56.706Z,9.95
2022-10-05T02:13:42.273Z,11.10
2022-10-05T02:16:22.550Z,10.88
2022-10-05T02:18:55.533Z,10.07
2022-10-05T02:21:25.839Z,11.02
2022-10-05T02:23:59.929Z,10.18
2022-10-05T02:26:28.512Z,8.07
2022-10-05T02:29:03.755Z,7.90
2022-10-05T02:32:03.928Z,8.18
2022-10-05T02:34:41.451Z,8.77
2022-10-05T02:37:12.848Z,8.30
2022-10-05T02:39:46.686Z,9.10
2022-10-05T02:42:29.698Z,8.68
2022-10-05T02:45:19.313Z,8.63
2022-10-05T02:48:00.573Z,7.28
2022-10-05T02:50:47.918Z,7.75
2022-10-05T02:53:24.804Z,13.13
2022-10-05T02:56:09.779Z,11.07
2022-10-05T02:59:05.683Z,10.18
2022-10-05T03:01:51.207Z,11.57
2022-10-05T03:04:27.864Z,11.65
2022-10-05T03:07:26.554Z,9.68
2022-10-05T03:10:23.714Z,8.00
2022-10-05T03:13:04.051Z,10.60
2022-10-05T03:15:41.970Z,10.75
2022-10-05T03:18:30.866Z,8.52
2022-10-05T03:21:16.024Z,10.15
2022-10-05T03:23:59.537Z,11.88
2022-10-05T03:26:51.641Z,13.90
2022-10-05T03:29:49.076Z,9.80
2022-10-05T03:32:39.826Z,8.52
2022-10-05T03:35:16.846Z,10.77
2022-10-05T03:38:12.754Z,10.20
2022-10-05T03:41:05.977Z,9.85
2022-10-05T03:43:51.444Z,10.20
2022-10-05T03:49:40.148Z,11.05
2022-10-05T03:52:14.823Z,12.05
2022-10-05T03:54:49.802Z,10.43
2022-10-05T03:57:37.546Z,10.40
2022-10-05T04:00:28.392Z,10.50
2022-10-05T04:03:11.439Z,12.27
2022-10-05T04:05:44.580Z,11.48
2022-10-05T04:08:26.025Z,9.68
2022-10-05T04:10:58.133Z,10.18
2022-10-05T04:13:51.326Z,11.45
2022-10-05T04:16:22.309Z,10.55
2022-10-05T04:19:17.598Z,10.70
2022-10-05T04:22:08.660Z,13.50
2022-10-05T04:25:04.225Z,15.35
2022-10-05T04:27:40.498Z,9.65
2022-10-05T04:30:13.384Z,11.75
2022-10-05T04:32:50.534Z,13.60
2022-10-05T04:35:50.720Z,15.32
2022-10-05T04:38:45.517Z,16.85
2022-10-05T04:41:31.837Z,13.52
2022-10-05T04:44:22.469Z,11.98
2022-10-05T04:47:22.570Z,14.18
2022-10-05T04:50:18.645Z,12.43
2022-10-05T04:52:59.109Z,12.75
2022-10-05T04:55:39.310Z,14.73
2022-10-05T04:58:42.241Z,11.35
2022-10-05T05:01:19.426Z,14.13
2022-10-05T05:04:02.746Z,13.90
2022-10-05T05:06:43.746Z,16.75
2022-10-05T05:09:32.054Z,15.63
2022-10-05T05:12:05.726Z,13.25
2022-10-05T05:14:36.781Z,12.68
2022-10-05T05:17:46.218Z,15.68
2022-10-05T05:20:38.827Z,14.35
2022-10-05T05:23:11.606Z,16.50
2022-10-05T05:26:11.648Z,16.83
2022-10-05T05:28:46.027Z,17.88
2022-10-05T05:31:24.824Z,17.77
2022-10-05T05:34:11.157Z,17.83
2022-10-05T05:37:13.038Z,16.13
2022-10-05T05:40:18.315Z,16.85
2022-10-05T05:43:00.193Z,16.05
2022-10-05T05:45:51.939Z,14.10
2022-10-05T05:48:36.235Z,16.45
2022-10-05T05:51:41.108Z,15.10
2022-10-05T05:54:30.709Z,14.57
2022-10-05T05:57:10.586Z,16.60
2022-10-05T06:02:18.143Z,11.77
2022-10-05T06:05:10.663Z,12.90
2022-10-05T06:07:40.429Z,11.15
2022-10-05T06:13:04.810Z,11.70
2022-10-05T06:15:41.812Z,9.93
2022-10-05T06:18:16.284Z,11.07
2022-10-05T06:20:53.071Z,9.90
2022-10-05T06:23:47.104Z,11.02
2022-10-05T06:26:18.496Z,11.60
2022-10-05T06:28:54.067Z,11.57
2022-10-05T06:31:58.755Z,11.40
2022-10-05T06:34:52.383Z,10.02
2022-10-05T06:37:32.420Z,12.35
2022-10-05T06:40:12.462Z,12.18
2022-10-05T06:43:16.545Z,12.95
2022-10-05T06:45:47.656Z,11.05
2022-10-05T06:48:29.456Z,10.35
2022-10-05T06:51:16.532Z,11.52
2022-10-05T06:53:59.349Z,10.68
2022-10-05T06:56:45.251Z,11.05
2022-10-05T06:59:25.603Z,12.00
2022-10-05T07:01:59.117Z,11.85
2022-10-05T07:04:48.217Z,10.68
2022-10-05T07:07:38.549Z,10.57
2022-10-05T07:10:44.646Z,14.52
2022-10-05T07:13:30.806Z,10.93
2022-10-05T07:16:33.613Z,13.52
2022-10-05T07:19:43.103Z,13.90
2022-10-05T07:22:34.233Z,14.48
2022-10-05T07:25:18.724Z,10.55
2022-10-05T07:27:57.622Z,10.07
2022-10-05T07:30:25.742Z,9.07
2022-10-05T07:33:07.092Z,11.15
2022-10-05T07:36:20.911Z,12.73
2022-10-05T07:39:10.980Z,9.48
2022-10-05T07:42:19.784Z,10.82
2022-10-05T07:48:17.198Z,10.73
2022-10-05T07:51:21.676Z,9.63
2022-10-05T07:54:13.541Z,9.65
2022-10-05T07:56:51.141Z,9.07
2022-10-05T07:59:59.565Z,11.32
2022-10-05T08:02:46.099Z,9.55
2022-10-05T08:05:35.765Z,11.30
2022-10-05T09:44:22.231Z,10.82
2022-10-05T09:47:31.441Z,13.23
2022-10-05T09:50:25.627Z,12.60
2022-10-05T09:53:23.936Z,12.23
2022-10-05T09:56:10.417Z,10.20
2022-10-05T09:58:56.425Z,13.40
2022-10-05T10:01:38.320Z,9.43
2022-10-05T10:04:19.717Z,8.75
2022-10-05T10:07:22.388Z,8.48
2022-10-05T10:10:54.721Z,10.20
2022-10-05T10:13:46.439Z,10.40
2022-10-05T10:16:46.793Z,10.13
2022-10-05T10:19:58.057Z,9.88
2022-10-05T10:22:46.138Z,9.93
2022-10-05T10:25:32.711Z,8.48
2022-10-05T10:28:39.040Z,9.93
2022-10-05T10:31:39.553Z,8.95
2022-10-05T10:34:25.735Z,8.10
2022-10-05T10:40:23.935Z,7.97
2022-10-05T10:43:20.276Z,6.47
2022-10-05T10:45:57.382Z,6.95
2022-10-05T10:48:31.528Z,8.95
2022-10-05T10:51:20.690Z,6.90
2022-10-05T10:54:15.095Z,10.13
2022-10-05T10:56:59.429Z,8.55
2022-10-05T11:00:08.395Z,8.38
2022-10-05T11:02:50.878Z,8.60
2022-10-05T11:05:47.931Z,7.20
2022-10-05T11:08:47.652Z,6.85
2022-10-05T11:12:11.351Z,7.07
2022-10-05T11:15:30.062Z,6.70
2022-10-05T11:18:07.209Z,7.95
2022-10-05T11:20:53.474Z,9.43
2022-10-05T11:23:47.255Z,7.15
2022-10-05T11:26:18.196Z,7.68
2022-10-05T11:29:02.737Z,8.30
2022-10-05T11:31:37.649Z,6.30
2022-10-05T11:34:12.211Z,7.85
2022-10-05T11:36:52.165Z,12.70
2022-10-05T11:40:01.375Z,11.45
2022-10-05T11:42:49.574Z,17.38
2022-10-05T11:45:27.355Z,10.57
2022-10-05T11:48:11.748Z,10.50
2022-10-05T11:51:17.082Z,10.05
2022-10-05T11:54:18.160Z,8.25
2022-10-05T11:56:53.904Z,8.18
2022-10-05T11:59:50.052Z,6.95
2022-10-05T12:02:44.737Z,8.82
2022-10-05T12:05:44.850Z,9.10
2022-10-05T12:08:35.453Z,6.60
2022-10-05T12:11:13.815Z,6.40
2022-10-05T12:13:56.796Z,5.13
2022-10-05T12:17:08.166Z,5.47
2022-10-05T12:19:42.810Z,6.55
2022-10-05T12:22:28.151Z,4.40
2022-10-05T12:25:35.631Z,4.13
2022-10-05T12:28:14.978Z,5.00
2022-10-05T12:31:28.224Z,3.80
2022-10-05T12:34:14.335Z,4.25
2022-10-05T12:37:06.257Z,6.07
2022-10-05T12:39:48.870Z,4.28
2022-10-05T12:42:44.504Z,3.38
2022-10-05T12:45:20.891Z,3.55
2022-10-05T12:47:55.895Z,6.38
2022-10-05T12:50:32.831Z,4.03
2022-10-05T12:53:26.596Z,3.85
2022-10-05T12:56:03.463Z,3.97
2022-10-05T12:59:02.070Z,3.85
2022-10-05T13:01:34.670Z,2.70
2022-10-05T13:04:22.143Z,3.55
2022-10-05T13:07:19.154Z,3.17
2022-10-05T13:10:30.661Z,2.85
2022-10-05T13:13:04.517Z,3.60
2022-10-05T13:15:34.631Z,2.58
2022-10-05T13:20:55.884Z,2.47
2022-10-05T13:23:35.816Z,2.80
2022-10-05T13:26:13.531Z,3.25
2022-10-05T13:29:04.384Z,3.65
2022-10-05T13:31:32.420Z,2.53
2022-10-05T13:34:20.564Z,2.25
2022-10-05T13:36:48.606Z,3.70
2022-10-05T13:39:35.345Z,3.58
2022-10-05T13:42:36.007Z,2.58
2022-10-05T13:45:24.749Z,4.60
2022-10-05T13:48:02.877Z,4.07
2022-10-05T13:50:39.101Z,3.05
2022-10-05T13:53:29.759Z,3.55
2022-10-05T13:56:11.535Z,4.65
2022-10-05T13:58:55.561Z,5.65
2022-10-05T14:01:33.342Z,5.63
2022-10-05T14:04:43.157Z,3.95
2022-10-05T14:09:52.735Z,3.60
2022-10-05T14:12:23.315Z,4.80
2022-10-05T14:14:55.629Z,7.47
2022-10-05T14:17:45.427Z,13.45
2022-10-05T14:20:59.215Z,9.97
2022-10-05T14:23:27.973Z,5.97
2022-10-05T14:25:56.769Z,7.30
2022-10-05T14:28:36.792Z,7.13
2022-10-05T14:31:27.613Z,12.07
2022-10-05T14:33:57.591Z,18.38
2022-10-05T14:36:44.534Z,15.13
2022-10-05T14:39:15.482Z,10.95
2022-10-05T14:41:49.759Z,18.33
2022-10-05T14:44:36.804Z,9.52
2022-10-05T14:47:25.139Z,13.27
2022-10-05T14:50:14.871Z,33.95
2022-10-05T14:55:31.429Z,29.02
2022-10-05T14:58:25.083Z,33.75
2022-10-05T15:01:04.660Z,27.60
2022-10-05T15:06:02.794Z,76.65
2022-10-05T15:08:42.981Z,55.35
2022-10-05T15:11:43.280Z,68.40
2022-10-05T15:14:43.540Z,41.30
2022-10-05T15:17:26.865Z,52.17
2022-10-05T15:20:19.606Z,140.05
2022-10-05T15:23:00.082Z,122.80
2022-10-05T15:25:53.385Z,109.57
2022-10-05T15:28:40.417Z,113.00
2022-10-05T15:31:28.344Z,80.65
2022-10-05T15:34:27.146Z,44.53
2022-10-05T15:37:26.575Z,42.47
2022-10-05T15:40:03.664Z,50.42
2022-10-05T15:42:44.573Z,37.55
2022-10-05T15:45:33.268Z,33.75
2022-10-05T15:48:42.129Z,31.52
2022-10-05T15:51:17.431Z,51.90
2022-10-05T15:54:15.189Z,40.08
2022-10-05T15:57:09.830Z,35.50
2022-10-05T16:00:00.150Z,30.08
2022-10-05T16:02:42.264Z,24.17
2022-10-05T16:05:58.997Z,19.02
2022-10-05T16:08:56.929Z,27.00
2022-10-05T16:12:01.260Z,31.20
2022-10-05T16:14:43.417Z,35.80
2022-10-05T16:17:34.505Z,44.63
2022-10-05T16:20:29.580Z,44.55
2022-10-05T16:23:19.386Z,30.75
2022-10-05T16:25:59.634Z,39.15
2022-10-05T16:29:15.606Z,36.33
2022-10-05T16:32:03.360Z,31.15
2022-10-05T16:34:50.670Z,34.05
2022-10-05T16:37:57.179Z,35.47
2022-10-05T16:40:30.042Z,35.10
2022-10-05T16:43:04.215Z,29.00
2022-10-05T16:46:10.157Z,25.55
2022-10-05T16:51:57.901Z,20.35
2022-10-05T16:54:32.885Z,20.00
2022-10-05T16:57:06.529Z,19.30
2022-10-05T16:59:56.706Z,16.92
2022-10-05T17:02:51.754Z,17.10
2022-10-05T17:05:29.610Z,23.35
2022-10-05T17:08:27.070Z,24.55
2022-10-05T17:11:26.073Z,39.00
2022-10-05T17:14:07.980Z,104.65
2022-10-05T17:17:01.816Z,96.72
2022-10-05T17:19:40.094Z,90.00
2022-10-05T17:22:23.316Z,86.32
2022-10-05T17:25:27.414Z,105.75
2022-10-05T17:28:17.278Z,77.10
2022-10-05T17:31:03.899Z,59.58
2022-10-05T17:33:33.692Z,34.75
2022-10-05T17:36:05.349Z,32.58
2022-10-05T17:38:39.003Z,30.73
2022-10-05T17:41:13.135Z,20.80
2022-10-05T17:43:41.960Z,23.55
2022-10-05T17:46:13.230Z,22.48
2022-10-05T17:48:50.322Z,13.77
2022-10-05T17:51:49.700Z,12.07
2022-10-05T17:54:42.048Z,8.85
2022-10-05T17:57:11.547Z,7.90
2022-10-05T17:59:56.390Z,10.18
2022-10-05T18:02:36.696Z,12.30
2022-10-05T18:05:05.254Z,7.88
2022-10-05T18:07:38.374Z,8.63
2022-10-05T18:10:12.381Z,10.05
2022-10-05T18:12:48.587Z,10.82
2022-10-05T18:15:49.056Z,7.40
2022-10-05T18:18:59.665Z,7.43
2022-10-05T18:21:34.984Z,10.10
2022-10-05T18:24:39.001Z,8.90
2022-10-05T18:27:18.593Z,9.18
2022-10-05T18:30:09.645Z,8.73
2022-10-05T18:32:55.781Z,10.05
2022-10-05T18:35:49.032Z,11.85
2022-10-05T18:38:25.966Z,14.75
2022-10-05T18:41:28.399Z,13.57
2022-10-05T18:44:14.469Z,12.52
2022-10-05T18:46:53.572Z,12.52
2022-10-05T18:49:53.111Z,17.27
2022-10-05T18:52:57.254Z,20.95
2022-10-05T18:55:42.284Z,19.70
2022-10-05T18:58:10.946Z,21.02
2022-10-05T19:00:41.884Z,16.00
2022-10-05T19:03:50.493Z,14.10
2022-10-05T19:06:30.486Z,18.03
2022-10-05T19:09:32.367Z,17.95
2022-10-05T19:12:03.360Z,20.40
2022-10-05T19:14:50.608Z,17.85
2022-10-05T19:17:30.168Z,18.88
2022-10-05T19:20:19.050Z,22.67
2022-10-05T19:23:34.051Z,13.70
2022-10-05T19:26:20.273Z,15.00
2022-10-05T19:29:12.450Z,11.02
2022-10-05T19:31:58.244Z,19.60
2022-10-05T19:34:44.509Z,19.00
2022-10-05T19:37:32.710Z,11.98
2022-10-05T19:40:31.284Z,11.48
2022-10-05T19:43:18.545Z,14.05
2022-10-05T19:46:17.689Z,18.20
2022-10-05T19:48:55.174Z,16.45
2022-10-05T19:51:29.450Z,13.63
2022-10-05T19:54:02.990Z,13.15
2022-10-05T19:56:35.185Z,10.85
2022-10-05T19:59:18.511Z,13.30
2022-10-05T20:01:56.139Z,12.35
2022-10-05T20:04:46.211Z,17.23
2022-10-05T20:07:22.176Z,21.02
2022-10-05T20:09:59.915Z,40.70
2022-10-05T20:12:54.934Z,42.50
2022-10-05T20:15:46.362Z,18.98
2022-10-05T20:18:58.075Z,14.63
2022-10-05T20:21:48.266Z,14.73
2022-10-05T20:24:26.436Z,14.20
2022-10-05T20:27:05.735Z,15.07
2022-10-05T20:29:36.121Z,12.55
2022-10-05T20:32:12.261Z,13.88
2022-10-05T20:34:45.696Z,12.35
2022-10-05T20:37:17.690Z,14.00
2022-10-05T20:39:45.936Z,17.42
2022-10-05T20:42:14.651Z,15.02
2022-10-05T20:44:42.847Z,12.37
2022-10-05T20:47:11.420Z,27.63
2022-10-05T20:49:41.665Z,39.78
2022-10-05T20:52:13.595Z,37.28
2022-10-05T20:54:41.913Z,35.20
2022-10-05T20:57:11.050Z,33.85
2022-10-05T20:59:39.998Z,26.80
2022-10-05T21:02:08.042Z,24.13
2022-10-05T21:04:40.589Z,23.70
2022-10-05T21:07:11.318Z,15.93
2022-10-05T21:09:41.648Z,18.38
2022-10-05T21:12:09.572Z,15.18
2022-10-05T21:14:39.521Z,17.35
2022-10-05T21:17:07.718Z,15.07
2022-10-05T21:19:40.090Z,14.45
2022-10-05T21:22:10.223Z,15.02
2022-10-05T21:24:40.366Z,14.23
2022-10-05T21:27:10.122Z,15.88
2022-10-05T21:29:44.400Z,16.98
2022-10-05T21:32:12.249Z,12.70
2022-10-05T21:34:41.831Z,12.57
2022-10-05T21:37:10.926Z,12.57
2022-10-05T21:39:38.896Z,13.80
2022-10-05T21:42:06.864Z,11.68
2022-10-05T21:44:35.021Z,20.52
2022-10-05T21:47:03.067Z,21.80
2022-10-05T21:49:31.747Z,13.45
2022-10-05T21:52:01.691Z,15.63
2022-10-05T21:54:29.732Z,15.60
2022-10-05T21:56:59.437Z,16.92
2022-10-05T22:01:57.010Z,15.13
2022-10-05T22:04:24.981Z,10.63
2022-10-05T22:06:53.986Z,12.98
2022-10-05T22:09:21.952Z,8.23
2022-10-05T22:11:50.155Z,12.88
2022-10-05T22:14:18.401Z,15.85
2022-10-05T22:16:46.475Z,15.40
2022-10-05T22:19:19.595Z,10.18
2022-10-05T22:21:49.482Z,8.82
2022-10-05T22:24:17.473Z,8.57
2022-10-05T22:26:48.857Z,11.15
2022-10-05T22:29:21.357Z,12.68
2022-10-05T22:31:49.984Z,10.07
2022-10-05T22:34:18.914Z,12.83
2022-10-05T22:36:49.660Z,12.18
2022-10-05T22:39:18.408Z,9.55
2022-10-05T22:41:46.402Z,11.47
2022-10-05T22:44:16.223Z,10.98
2022-10-05T22:46:44.469Z,9.75
2022-10-05T22:49:12.399Z,8.63
2022-10-05T22:51:40.624Z,8.23
2022-10-05T22:54:08.631Z,9.43
2022-10-05T22:56:36.559Z,10.45
2022-10-05T22:59:05.476Z,8.65
2022-10-05T23:01:33.459Z,10.13
2022-10-05T23:04:01.457Z,8.82
2022-10-05T23:06:30.885Z,8.27
2022-10-05T23:08:58.877Z,7.63
2022-10-05T23:11:29.362Z,8.32
2022-10-05T23:13:59.513Z,9.20
2022-10-05T23:16:29.203Z,10.00
2022-10-05T23:21:28.005Z,12.80
2022-10-05T23:23:56.714Z,9.23
2022-10-05T23:26:26.747Z,8.40
2022-10-05T23:28:55.938Z,8.52
2022-10-05T23:31:26.973Z,8.57
2022-10-05T23:33:55.191Z,7.75
2022-10-05T23:36:26.995Z,9.02
2022-10-05T23:38:55.606Z,8.05
2022-10-05T23:41:24.428Z,9.13
2022-10-05T23:43:55.682Z,8.98
2022-10-05T23:46:24.023Z,10.77
2022-10-05T23:48:54.000Z,10.55
2022-10-05T23:51:24.413Z,11.07
2022-10-05T23:53:52.456Z,9.23
2022-10-05T23:56:20.659Z,12.65
2022-10-05T23:58:49.019Z,12.15
